sensor_id;sensor_type;location;lat;lon;timestamp;P1;durP1;ratioP1;P2;durP2;ratioP2
26536;SDS011;14204;51.262;5.488;2024-03-17T00:00:30;13.50;;;7.80;;
26536;SDS011;14204;51.262;5.488;2024-03-17T00:02:56;11.85;;;7.82;;
26536;SDS011;14204;51.262;5.488;2024-03-17T00:05:22;11.63;;;7.38;;
26536;SDS011;14204;51.262;5.488;2024-03-17T00:07:48;15.20;;;7.50;;
26536;SDS011;14204;51.262;5.488;2024-03-17T00:10:14;13.73;;;8.02;;
26536;SDS011;14204;51.262;5.488;2024-03-17T00:12:40;15.10;;;8.00;;
26536;SDS011;14204;51.262;5.488;2024-03-17T00:15:06;13.55;;;8.45;;
26536;SDS011;14204;51.262;5.488;2024-03-17T00:17:33;12.15;;;8.52;;
26536;SDS011;14204;51.262;5.488;2024-03-17T00:20:02;14.98;;;8.75;;
26536;SDS011;14204;51.262;5.488;2024-03-17T00:22:34;12.05;;;7.68;;
26536;SDS011;14204;51.262;5.488;2024-03-17T00:25:04;16.23;;;8.85;;
26536;SDS011;14204;51.262;5.488;2024-03-17T00:27:33;15.68;;;9.32;;
26536;SDS011;14204;51.262;5.488;2024-03-17T00:30:04;19.58;;;9.48;;
26536;SDS011;14204;51.262;5.488;2024-03-17T00:32:35;16.83;;;9.02;;
26536;SDS011;14204;51.262;5.488;2024-03-17T00:35:01;16.63;;;9.70;;
26536;SDS011;14204;51.262;5.488;2024-03-17T00:37:26;17.38;;;10.45;;
26536;SDS011;14204;51.262;5.488;2024-03-17T00:39:53;19.80;;;10.80;;
26536;SDS011;14204;51.262;5.488;2024-03-17T00:42:19;14.65;;;10.38;;
26536;SDS011;14204;51.262;5.488;2024-03-17T00:44:44;20.17;;;12.07;;
26536;SDS011;14204;51.262;5.488;2024-03-17T00:47:10;23.85;;;12.20;;
26536;SDS011;14204;51.262;5.488;2024-03-17T00:49:36;23.35;;;12.07;;
26536;SDS011;14204;51.262;5.488;2024-03-17T00:52:02;20.70;;;11.27;;
26536;SDS011;14204;51.262;5.488;2024-03-17T00:54:28;16.95;;;11.48;;
26536;SDS011;14204;51.262;5.488;2024-03-17T00:56:53;17.35;;;11.13;;
26536;SDS011;14204;51.262;5.488;2024-03-17T00:59:19;21.92;;;11.73;;
26536;SDS011;14204;51.262;5.488;2024-03-17T01:01:46;16.90;;;9.77;;
26536;SDS011;14204;51.262;5.488;2024-03-17T01:04:11;17.35;;;10.45;;
26536;SDS011;14204;51.262;5.488;2024-03-17T01:06:37;15.93;;;11.20;;
26536;SDS011;14204;51.262;5.488;2024-03-17T01:09:06;20.70;;;10.90;;
26536;SDS011;14204;51.262;5.488;2024-03-17T01:11:32;17.70;;;11.75;;
26536;SDS011;14204;51.262;5.488;2024-03-17T01:13:57;19.25;;;11.35;;
26536;SDS011;14204;51.262;5.488;2024-03-17T01:16:23;18.17;;;13.07;;
26536;SDS011;14204;51.262;5.488;2024-03-17T01:18:49;19.58;;;13.00;;
26536;SDS011;14204;51.262;5.488;2024-03-17T01:21:15;18.48;;;13.60;;
26536;SDS011;14204;51.262;5.488;2024-03-17T01:23:40;22.45;;;13.02;;
26536;SDS011;14204;51.262;5.488;2024-03-17T01:26:06;19.08;;;13.05;;
26536;SDS011;14204;51.262;5.488;2024-03-17T01:28:32;20.50;;;13.73;;
26536;SDS011;14204;51.262;5.488;2024-03-17T01:30:57;22.42;;;13.63;;
26536;SDS011;14204;51.262;5.488;2024-03-17T01:33:23;21.75;;;13.32;;
26536;SDS011;14204;51.262;5.488;2024-03-17T01:35:49;24.92;;;14.70;;
26536;SDS011;14204;51.262;5.488;2024-03-17T01:38:15;20.02;;;13.85;;
26536;SDS011;14204;51.262;5.488;2024-03-17T01:40:40;23.58;;;14.93;;
26536;SDS011;14204;51.262;5.488;2024-03-17T01:43:09;22.55;;;14.43;;
26536;SDS011;14204;51.262;5.488;2024-03-17T01:45:36;19.92;;;14.15;;
26536;SDS011;14204;51.262;5.488;2024-03-17T01:48:02;23.73;;;14.23;;
26536;SDS011;14204;51.262;5.488;2024-03-17T01:50:31;23.05;;;14.45;;
26536;SDS011;14204;51.262;5.488;2024-03-17T01:53:00;18.90;;;13.35;;
26536;SDS011;14204;51.262;5.488;2024-03-17T01:55:29;20.98;;;14.27;;
26536;SDS011;14204;51.262;5.488;2024-03-17T01:57:56;23.52;;;14.20;;
26536;SDS011;14204;51.262;5.488;2024-03-17T02:00:23;21.23;;;13.70;;
26536;SDS011;14204;51.262;5.488;2024-03-17T02:02:49;25.02;;;13.88;;
26536;SDS011;14204;51.262;5.488;2024-03-17T02:05:15;22.60;;;14.77;;
26536;SDS011;14204;51.262;5.488;2024-03-17T02:07:41;22.20;;;14.80;;
26536;SDS011;14204;51.262;5.488;2024-03-17T02:10:07;22.25;;;14.75;;
26536;SDS011;14204;51.262;5.488;2024-03-17T02:12:33;21.25;;;14.75;;
26536;SDS011;14204;51.262;5.488;2024-03-17T02:15:00;25.65;;;16.83;;
26536;SDS011;14204;51.262;5.488;2024-03-17T02:17:30;26.15;;;16.27;;
26536;SDS011;14204;51.262;5.488;2024-03-17T02:19:59;24.67;;;15.90;;
26536;SDS011;14204;51.262;5.488;2024-03-17T02:22:25;23.10;;;15.95;;
26536;SDS011;14204;51.262;5.488;2024-03-17T02:24:53;22.67;;;14.52;;
26536;SDS011;14204;51.262;5.488;2024-03-17T02:27:19;26.35;;;16.20;;
26536;SDS011;14204;51.262;5.488;2024-03-17T02:29:44;26.27;;;16.40;;
26536;SDS011;14204;51.262;5.488;2024-03-17T02:32:10;20.50;;;14.20;;
26536;SDS011;14204;51.262;5.488;2024-03-17T02:34:36;24.05;;;15.32;;
26536;SDS011;14204;51.262;5.488;2024-03-17T02:37:04;23.98;;;16.55;;
26536;SDS011;14204;51.262;5.488;2024-03-17T02:39:32;28.10;;;16.85;;
26536;SDS011;14204;51.262;5.488;2024-03-17T02:42:06;22.42;;;14.82;;
26536;SDS011;14204;51.262;5.488;2024-03-17T02:44:33;29.45;;;17.00;;
26536;SDS011;14204;51.262;5.488;2024-03-17T02:47:00;26.77;;;17.50;;
26536;SDS011;14204;51.262;5.488;2024-03-17T02:49:29;24.70;;;17.20;;
26536;SDS011;14204;51.262;5.488;2024-03-17T02:52:02;24.67;;;16.67;;
26536;SDS011;14204;51.262;5.488;2024-03-17T02:54:29;27.63;;;18.10;;
26536;SDS011;14204;51.262;5.488;2024-03-17T02:56:55;26.27;;;17.08;;
26536;SDS011;14204;51.262;5.488;2024-03-17T02:59:21;26.92;;;17.63;;
26536;SDS011;14204;51.262;5.488;2024-03-17T03:01:47;30.73;;;17.98;;
26536;SDS011;14204;51.262;5.488;2024-03-17T03:04:12;29.25;;;17.40;;
26536;SDS011;14204;51.262;5.488;2024-03-17T03:06:38;29.25;;;17.35;;
26536;SDS011;14204;51.262;5.488;2024-03-17T03:09:04;24.30;;;18.63;;
26536;SDS011;14204;51.262;5.488;2024-03-17T03:11:38;23.27;;;16.23;;
26536;SDS011;14204;51.262;5.488;2024-03-17T03:14:07;26.70;;;16.30;;
26536;SDS011;14204;51.262;5.488;2024-03-17T03:16:33;26.45;;;16.50;;
26536;SDS011;14204;51.262;5.488;2024-03-17T03:18:59;26.70;;;17.20;;
26536;SDS011;14204;51.262;5.488;2024-03-17T03:21:25;23.48;;;17.40;;
26536;SDS011;14204;51.262;5.488;2024-03-17T03:23:51;27.88;;;17.98;;
26536;SDS011;14204;51.262;5.488;2024-03-17T03:26:17;28.70;;;18.38;;
26536;SDS011;14204;51.262;5.488;2024-03-17T03:28:43;24.20;;;17.50;;
26536;SDS011;14204;51.262;5.488;2024-03-17T03:31:12;26.23;;;16.63;;
26536;SDS011;14204;51.262;5.488;2024-03-17T03:33:39;30.15;;;18.10;;
26536;SDS011;14204;51.262;5.488;2024-03-17T03:36:12;24.50;;;16.80;;
26536;SDS011;14204;51.262;5.488;2024-03-17T03:38:39;23.05;;;16.65;;
26536;SDS011;14204;51.262;5.488;2024-03-17T03:41:08;30.73;;;18.33;;
26536;SDS011;14204;51.262;5.488;2024-03-17T03:43:36;24.80;;;16.45;;
26536;SDS011;14204;51.262;5.488;2024-03-17T03:46:01;26.85;;;17.10;;
26536;SDS011;14204;51.262;5.488;2024-03-17T03:48:28;28.48;;;18.45;;
26536;SDS011;14204;51.262;5.488;2024-03-17T03:50:54;29.10;;;17.50;;
26536;SDS011;14204;51.262;5.488;2024-03-17T03:53:19;21.15;;;15.77;;
26536;SDS011;14204;51.262;5.488;2024-03-17T03:55:46;25.23;;;16.70;;
26536;SDS011;14204;51.262;5.488;2024-03-17T03:58:11;27.63;;;18.10;;
26536;SDS011;14204;51.262;5.488;2024-03-17T04:00:38;21.83;;;16.48;;
26536;SDS011;14204;51.262;5.488;2024-03-17T04:03:04;24.95;;;16.10;;
26536;SDS011;14204;51.262;5.488;2024-03-17T04:05:31;23.48;;;16.50;;
26536;SDS011;14204;51.262;5.488;2024-03-17T04:07:57;25.08;;;16.27;;
26536;SDS011;14204;51.262;5.488;2024-03-17T04:10:23;24.02;;;15.20;;
26536;SDS011;14204;51.262;5.488;2024-03-17T04:12:50;22.65;;;15.43;;
26536;SDS011;14204;51.262;5.488;2024-03-17T04:15:16;25.05;;;14.90;;
26536;SDS011;14204;51.262;5.488;2024-03-17T04:17:42;25.35;;;15.95;;
26536;SDS011;14204;51.262;5.488;2024-03-17T04:20:08;25.15;;;15.68;;
26536;SDS011;14204;51.262;5.488;2024-03-17T04:22:38;24.17;;;16.10;;
26536;SDS011;14204;51.262;5.488;2024-03-17T04:25:04;21.95;;;15.15;;
26536;SDS011;14204;51.262;5.488;2024-03-17T04:27:30;21.48;;;14.98;;
26536;SDS011;14204;51.262;5.488;2024-03-17T04:29:56;21.00;;;14.30;;
26536;SDS011;14204;51.262;5.488;2024-03-17T04:32:23;21.23;;;14.43;;
26536;SDS011;14204;51.262;5.488;2024-03-17T04:34:49;24.58;;;15.75;;
26536;SDS011;14204;51.262;5.488;2024-03-17T04:37:16;22.42;;;15.52;;
26536;SDS011;14204;51.262;5.488;2024-03-17T04:39:44;21.75;;;14.23;;
26536;SDS011;14204;51.262;5.488;2024-03-17T04:42:11;22.90;;;14.30;;
26536;SDS011;14204;51.262;5.488;2024-03-17T04:44:39;22.35;;;14.65;;
26536;SDS011;14204;51.262;5.488;2024-03-17T04:47:05;22.15;;;14.75;;
26536;SDS011;14204;51.262;5.488;2024-03-17T04:49:41;20.23;;;13.57;;
26536;SDS011;14204;51.262;5.488;2024-03-17T04:52:08;22.85;;;15.07;;
26536;SDS011;14204;51.262;5.488;2024-03-17T04:54:35;22.52;;;15.43;;
26536;SDS011;14204;51.262;5.488;2024-03-17T04:57:01;24.98;;;15.32;;
26536;SDS011;14204;51.262;5.488;2024-03-17T04:59:27;21.40;;;14.85;;
26536;SDS011;14204;51.262;5.488;2024-03-17T05:01:53;22.65;;;14.65;;
26536;SDS011;14204;51.262;5.488;2024-03-17T05:04:19;18.88;;;13.25;;
26536;SDS011;14204;51.262;5.488;2024-03-17T05:06:45;21.52;;;14.55;;
26536;SDS011;14204;51.262;5.488;2024-03-17T05:09:17;22.13;;;14.10;;
26536;SDS011;14204;51.262;5.488;2024-03-17T05:11:44;21.35;;;13.88;;
26536;SDS011;14204;51.262;5.488;2024-03-17T05:14:10;22.45;;;14.88;;
26536;SDS011;14204;51.262;5.488;2024-03-17T05:16:36;25.10;;;14.80;;
26536;SDS011;14204;51.262;5.488;2024-03-17T05:19:02;22.17;;;14.02;;
26536;SDS011;14204;51.262;5.488;2024-03-17T05:21:28;23.48;;;15.20;;
26536;SDS011;14204;51.262;5.488;2024-03-17T05:23:57;21.52;;;15.07;;
26536;SDS011;14204;51.262;5.488;2024-03-17T05:26:26;22.33;;;16.42;;
26536;SDS011;14204;51.262;5.488;2024-03-17T05:28:51;28.67;;;15.25;;
26536;SDS011;14204;51.262;5.488;2024-03-17T05:31:18;26.48;;;17.27;;
26536;SDS011;14204;51.262;5.488;2024-03-17T05:33:46;25.13;;;14.43;;
26536;SDS011;14204;51.262;5.488;2024-03-17T05:36:12;24.77;;;16.65;;
26536;SDS011;14204;51.262;5.488;2024-03-17T05:38:38;23.35;;;15.50;;
26536;SDS011;14204;51.262;5.488;2024-03-17T05:41:05;22.02;;;15.45;;
26536;SDS011;14204;51.262;5.488;2024-03-17T05:43:32;22.17;;;14.45;;
26536;SDS011;14204;51.262;5.488;2024-03-17T05:46:01;22.42;;;15.45;;
26536;SDS011;14204;51.262;5.488;2024-03-17T05:48:27;23.08;;;15.07;;
26536;SDS011;14204;51.262;5.488;2024-03-17T05:50:57;23.00;;;15.13;;
26536;SDS011;14204;51.262;5.488;2024-03-17T05:53:23;20.98;;;14.07;;
26536;SDS011;14204;51.262;5.488;2024-03-17T05:55:49;22.02;;;14.68;;
26536;SDS011;14204;51.262;5.488;2024-03-17T05:58:15;20.77;;;14.05;;
26536;SDS011;14204;51.262;5.488;2024-03-17T06:00:41;22.52;;;14.63;;
26536;SDS011;14204;51.262;5.488;2024-03-17T06:03:07;20.35;;;14.52;;
26536;SDS011;14204;51.262;5.488;2024-03-17T06:05:34;21.40;;;13.88;;
26536;SDS011;14204;51.262;5.488;2024-03-17T06:08:05;19.23;;;14.07;;
26536;SDS011;14204;51.262;5.488;2024-03-17T06:10:34;26.73;;;14.50;;
26536;SDS011;14204;51.262;5.488;2024-03-17T06:13:00;19.95;;;13.73;;
26536;SDS011;14204;51.262;5.488;2024-03-17T06:15:27;22.98;;;14.15;;
26536;SDS011;14204;51.262;5.488;2024-03-17T06:17:53;23.20;;;15.43;;
26536;SDS011;14204;51.262;5.488;2024-03-17T06:20:19;21.95;;;13.70;;
26536;SDS011;14204;51.262;5.488;2024-03-17T06:22:48;22.08;;;14.93;;
26536;SDS011;14204;51.262;5.488;2024-03-17T06:25:14;19.60;;;13.48;;
26536;SDS011;14204;51.262;5.488;2024-03-17T06:27:40;24.25;;;13.68;;
26536;SDS011;14204;51.262;5.488;2024-03-17T06:30:10;21.35;;;13.23;;
26536;SDS011;14204;51.262;5.488;2024-03-17T06:32:42;20.27;;;13.65;;
26536;SDS011;14204;51.262;5.488;2024-03-17T06:35:11;22.70;;;14.57;;
26536;SDS011;14204;51.262;5.488;2024-03-17T06:37:40;18.70;;;12.73;;
26536;SDS011;14204;51.262;5.488;2024-03-17T06:40:11;19.90;;;13.52;;
26536;SDS011;14204;51.262;5.488;2024-03-17T06:42:39;22.10;;;14.23;;
26536;SDS011;14204;51.262;5.488;2024-03-17T06:45:05;30.92;;;13.55;;
26536;SDS011;14204;51.262;5.488;2024-03-17T06:47:33;19.50;;;12.88;;
26536;SDS011;14204;51.262;5.488;2024-03-17T06:50:01;20.67;;;13.52;;
26536;SDS011;14204;51.262;5.488;2024-03-17T06:52:30;17.15;;;13.05;;
26536;SDS011;14204;51.262;5.488;2024-03-17T06:54:56;20.17;;;12.93;;
26536;SDS011;14204;51.262;5.488;2024-03-17T06:57:23;17.20;;;12.25;;
26536;SDS011;14204;51.262;5.488;2024-03-17T06:59:49;16.02;;;12.77;;
26536;SDS011;14204;51.262;5.488;2024-03-17T07:02:15;19.70;;;12.23;;
26536;SDS011;14204;51.262;5.488;2024-03-17T07:04:43;17.55;;;11.00;;
26536;SDS011;14204;51.262;5.488;2024-03-17T07:07:09;18.92;;;11.85;;
26536;SDS011;14204;51.262;5.488;2024-03-17T07:09:37;19.63;;;11.88;;
26536;SDS011;14204;51.262;5.488;2024-03-17T07:12:04;18.92;;;10.93;;
26536;SDS011;14204;51.262;5.488;2024-03-17T07:14:30;14.68;;;10.70;;
26536;SDS011;14204;51.262;5.488;2024-03-17T07:16:56;19.85;;;10.95;;
26536;SDS011;14204;51.262;5.488;2024-03-17T07:19:22;15.73;;;10.27;;
26536;SDS011;14204;51.262;5.488;2024-03-17T07:21:48;12.13;;;10.07;;
26536;SDS011;14204;51.262;5.488;2024-03-17T07:24:14;15.82;;;10.18;;
26536;SDS011;14204;51.262;5.488;2024-03-17T07:26:39;14.02;;;9.65;;
26536;SDS011;14204;51.262;5.488;2024-03-17T07:29:05;13.63;;;9.70;;
26536;SDS011;14204;51.262;5.488;2024-03-17T07:31:31;15.23;;;10.65;;
26536;SDS011;14204;51.262;5.488;2024-03-17T07:33:57;14.40;;;9.27;;
26536;SDS011;14204;51.262;5.488;2024-03-17T07:36:23;13.30;;;10.38;;
26536;SDS011;14204;51.262;5.488;2024-03-17T07:38:48;13.88;;;9.63;;
26536;SDS011;14204;51.262;5.488;2024-03-17T07:41:14;12.40;;;9.20;;
26536;SDS011;14204;51.262;5.488;2024-03-17T07:43:40;13.73;;;9.57;;
26536;SDS011;14204;51.262;5.488;2024-03-17T07:46:06;14.68;;;9.20;;
26536;SDS011;14204;51.262;5.488;2024-03-17T07:48:34;10.55;;;8.60;;
26536;SDS011;14204;51.262;5.488;2024-03-17T07:51:03;18.10;;;10.15;;
26536;SDS011;14204;51.262;5.488;2024-03-17T07:53:30;12.30;;;9.48;;
26536;SDS011;14204;51.262;5.488;2024-03-17T07:56:05;15.10;;;9.95;;
26536;SDS011;14204;51.262;5.488;2024-03-17T07:58:35;13.05;;;9.35;;
26536;SDS011;14204;51.262;5.488;2024-03-17T08:01:04;13.63;;;8.68;;
26536;SDS011;14204;51.262;5.488;2024-03-17T08:03:31;11.70;;;8.48;;
26536;SDS011;14204;51.262;5.488;2024-03-17T08:05:59;12.77;;;9.27;;
26536;SDS011;14204;51.262;5.488;2024-03-17T08:08:26;12.23;;;9.82;;
26536;SDS011;14204;51.262;5.488;2024-03-17T08:10:52;9.98;;;8.32;;
26536;SDS011;14204;51.262;5.488;2024-03-17T08:13:18;11.80;;;8.90;;
26536;SDS011;14204;51.262;5.488;2024-03-17T08:15:45;11.68;;;8.93;;
26536;SDS011;14204;51.262;5.488;2024-03-17T08:18:12;14.88;;;10.40;;
26536;SDS011;14204;51.262;5.488;2024-03-17T08:20:41;13.43;;;9.13;;
26536;SDS011;14204;51.262;5.488;2024-03-17T08:23:08;12.00;;;8.95;;
26536;SDS011;14204;51.262;5.488;2024-03-17T08:25:36;10.95;;;8.75;;
26536;SDS011;14204;51.262;5.488;2024-03-17T08:28:02;13.57;;;8.07;;
26536;SDS011;14204;51.262;5.488;2024-03-17T08:30:28;11.82;;;8.23;;
26536;SDS011;14204;51.262;5.488;2024-03-17T08:32:55;13.45;;;8.57;;
26536;SDS011;14204;51.262;5.488;2024-03-17T08:35:21;13.57;;;8.15;;
26536;SDS011;14204;51.262;5.488;2024-03-17T08:37:47;9.93;;;8.27;;
26536;SDS011;14204;51.262;5.488;2024-03-17T08:40:13;10.65;;;8.68;;
26536;SDS011;14204;51.262;5.488;2024-03-17T08:42:39;12.15;;;8.43;;
26536;SDS011;14204;51.262;5.488;2024-03-17T08:45:05;13.80;;;7.82;;
26536;SDS011;14204;51.262;5.488;2024-03-17T08:47:31;12.93;;;8.85;;
26536;SDS011;14204;51.262;5.488;2024-03-17T08:49:57;13.02;;;8.90;;
26536;SDS011;14204;51.262;5.488;2024-03-17T08:52:29;14.77;;;8.73;;
26536;SDS011;14204;51.262;5.488;2024-03-17T08:54:57;10.05;;;7.55;;
26536;SDS011;14204;51.262;5.488;2024-03-17T08:57:23;11.73;;;8.80;;
26536;SDS011;14204;51.262;5.488;2024-03-17T08:59:49;10.57;;;7.63;;
26536;SDS011;14204;51.262;5.488;2024-03-17T09:02:18;14.02;;;8.23;;
26536;SDS011;14204;51.262;5.488;2024-03-17T09:04:46;10.43;;;8.30;;
26536;SDS011;14204;51.262;5.488;2024-03-17T09:07:12;10.70;;;8.40;;
26536;SDS011;14204;51.262;5.488;2024-03-17T09:09:41;9.02;;;6.57;;
26536;SDS011;14204;51.262;5.488;2024-03-17T09:12:07;12.07;;;8.00;;
26536;SDS011;14204;51.262;5.488;2024-03-17T09:14:34;8.50;;;6.95;;
26536;SDS011;14204;51.262;5.488;2024-03-17T09:17:00;12.60;;;6.28;;
26536;SDS011;14204;51.262;5.488;2024-03-17T09:19:26;10.68;;;6.95;;
26536;SDS011;14204;51.262;5.488;2024-03-17T09:21:54;12.25;;;7.43;;
26536;SDS011;14204;51.262;5.488;2024-03-17T09:24:20;10.50;;;6.60;;
26536;SDS011;14204;51.262;5.488;2024-03-17T09:26:46;12.52;;;7.03;;
26536;SDS011;14204;51.262;5.488;2024-03-17T09:29:12;10.88;;;6.70;;
26536;SDS011;14204;51.262;5.488;2024-03-17T09:31:40;10.57;;;6.47;;
26536;SDS011;14204;51.262;5.488;2024-03-17T09:34:06;8.15;;;5.97;;
26536;SDS011;14204;51.262;5.488;2024-03-17T09:36:33;13.50;;;6.65;;
26536;SDS011;14204;51.262;5.488;2024-03-17T09:38:58;8.45;;;5.97;;
26536;SDS011;14204;51.262;5.488;2024-03-17T09:41:25;8.88;;;6.38;;
26536;SDS011;14204;51.262;5.488;2024-03-17T09:43:56;11.43;;;6.35;;
26536;SDS011;14204;51.262;5.488;2024-03-17T09:46:26;8.27;;;5.70;;
26536;SDS011;14204;51.262;5.488;2024-03-17T09:48:54;6.60;;;4.90;;
26536;SDS011;14204;51.262;5.488;2024-03-17T09:51:24;10.48;;;5.97;;
26536;SDS011;14204;51.262;5.488;2024-03-17T09:53:50;6.53;;;5.85;;
26536;SDS011;14204;51.262;5.488;2024-03-17T09:56:17;7.85;;;5.88;;
26536;SDS011;14204;51.262;5.488;2024-03-17T09:58:45;9.23;;;5.85;;
26536;SDS011;14204;51.262;5.488;2024-03-17T10:01:12;10.00;;;5.63;;
26536;SDS011;14204;51.262;5.488;2024-03-17T10:03:51;7.18;;;5.40;;
26536;SDS011;14204;51.262;5.488;2024-03-17T10:06:20;8.07;;;5.68;;
26536;SDS011;14204;51.262;5.488;2024-03-17T10:11:19;9.70;;;6.22;;
26536;SDS011;14204;51.262;5.488;2024-03-17T10:13:46;11.60;;;5.72;;
26536;SDS011;14204;51.262;5.488;2024-03-17T10:16:25;7.45;;;5.45;;
26536;SDS011;14204;51.262;5.488;2024-03-17T10:21:42;11.43;;;6.05;;
26536;SDS011;14204;51.262;5.488;2024-03-17T10:24:10;10.85;;;6.18;;
26536;SDS011;14204;51.262;5.488;2024-03-17T10:26:41;6.82;;;5.72;;
26536;SDS011;14204;51.262;5.488;2024-03-17T10:29:26;7.38;;;5.22;;
26536;SDS011;14204;51.262;5.488;2024-03-17T10:31:56;8.57;;;5.22;;
26536;SDS011;14204;51.262;5.488;2024-03-17T10:34:25;9.43;;;5.28;;
26536;SDS011;14204;51.262;5.488;2024-03-17T10:39:41;6.22;;;5.03;;
26536;SDS011;14204;51.262;5.488;2024-03-17T10:42:08;9.40;;;5.13;;
26536;SDS011;14204;51.262;5.488;2024-03-17T10:44:36;7.88;;;4.97;;
26536;SDS011;14204;51.262;5.488;2024-03-17T10:47:03;8.85;;;5.70;;
26536;SDS011;14204;51.262;5.488;2024-03-17T10:49:35;8.23;;;4.87;;
26536;SDS011;14204;51.262;5.488;2024-03-17T10:52:03;11.15;;;5.25;;
26536;SDS011;14204;51.262;5.488;2024-03-17T10:54:31;5.90;;;4.88;;
26536;SDS011;14204;51.262;5.488;2024-03-17T10:57:13;9.75;;;5.50;;
26536;SDS011;14204;51.262;5.488;2024-03-17T10:59:55;6.68;;;5.53;;
26536;SDS011;14204;51.262;5.488;2024-03-17T11:02:24;8.93;;;4.95;;
26536;SDS011;14204;51.262;5.488;2024-03-17T11:04:56;8.05;;;5.32;;
26536;SDS011;14204;51.262;5.488;2024-03-17T11:07:24;6.35;;;4.65;;
26536;SDS011;14204;51.262;5.488;2024-03-17T11:09:52;7.18;;;4.82;;
26536;SDS011;14204;51.262;5.488;2024-03-17T11:20:35;6.35;;;5.00;;
26536;SDS011;14204;51.262;5.488;2024-03-17T11:23:05;10.88;;;5.28;;
26536;SDS011;14204;51.262;5.488;2024-03-17T11:28:01;7.45;;;4.57;;
26536;SDS011;14204;51.262;5.488;2024-03-17T11:46:44;8.27;;;4.40;;
26536;SDS011;14204;51.262;5.488;2024-03-17T11:49:52;5.75;;;4.13;;
26536;SDS011;14204;51.262;5.488;2024-03-17T11:52:04;7.00;;;4.40;;
26536;SDS011;14204;51.262;5.488;2024-03-17T11:54:34;8.88;;;4.68;;
26536;SDS011;14204;51.262;5.488;2024-03-17T11:57:10;8.52;;;4.28;;
26536;SDS011;14204;51.262;5.488;2024-03-17T11:59:37;6.60;;;4.13;;
26536;SDS011;14204;51.262;5.488;2024-03-17T12:02:15;7.47;;;5.85;;
26536;SDS011;14204;51.262;5.488;2024-03-17T12:04:48;5.63;;;4.43;;
26536;SDS011;14204;51.262;5.488;2024-03-17T12:07:18;9.50;;;4.05;;
26536;SDS011;14204;51.262;5.488;2024-03-17T12:09:49;6.90;;;4.35;;
26536;SDS011;14204;51.262;5.488;2024-03-17T12:12:25;8.73;;;4.43;;
26536;SDS011;14204;51.262;5.488;2024-03-17T12:15:01;8.20;;;4.13;;
26536;SDS011;14204;51.262;5.488;2024-03-17T12:17:29;8.45;;;4.55;;
26536;SDS011;14204;51.262;5.488;2024-03-17T12:19:54;7.93;;;4.40;;
26536;SDS011;14204;51.262;5.488;2024-03-17T12:22:24;7.35;;;4.45;;
26536;SDS011;14204;51.262;5.488;2024-03-17T12:24:52;6.90;;;4.47;;
26536;SDS011;14204;51.262;5.488;2024-03-17T12:27:22;9.20;;;4.78;;
26536;SDS011;14204;51.262;5.488;2024-03-17T12:29:52;7.45;;;4.40;;
26536;SDS011;14204;51.262;5.488;2024-03-17T12:32:20;8.13;;;4.15;;
26536;SDS011;14204;51.262;5.488;2024-03-17T12:34:51;9.73;;;5.40;;
26536;SDS011;14204;51.262;5.488;2024-03-17T12:37:24;6.82;;;4.38;;
26536;SDS011;14204;51.262;5.488;2024-03-17T12:39:56;9.65;;;5.00;;
26536;SDS011;14204;51.262;5.488;2024-03-17T12:42:24;9.45;;;6.00;;
26536;SDS011;14204;51.262;5.488;2024-03-17T12:44:55;9.68;;;5.65;;
26536;SDS011;14204;51.262;5.488;2024-03-17T12:47:25;8.18;;;5.97;;
26536;SDS011;14204;51.262;5.488;2024-03-17T12:50:00;8.77;;;6.35;;
26536;SDS011;14204;51.262;5.488;2024-03-17T12:54:57;8.75;;;5.55;;
26536;SDS011;14204;51.262;5.488;2024-03-17T12:57:48;6.05;;;5.45;;
26536;SDS011;14204;51.262;5.488;2024-03-17T13:00:36;8.93;;;5.75;;
26536;SDS011;14204;51.262;5.488;2024-03-17T13:03:03;8.75;;;5.65;;
26536;SDS011;14204;51.262;5.488;2024-03-17T13:05:33;7.47;;;5.40;;
26536;SDS011;14204;51.262;5.488;2024-03-17T13:07:59;6.85;;;5.30;;
26536;SDS011;14204;51.262;5.488;2024-03-17T13:10:26;6.65;;;5.35;;
26536;SDS011;14204;51.262;5.488;2024-03-17T13:15:29;8.77;;;5.80;;
26536;SDS011;14204;51.262;5.488;2024-03-17T13:18:00;8.43;;;4.67;;
26536;SDS011;14204;51.262;5.488;2024-03-17T13:20:27;7.38;;;5.13;;
26536;SDS011;14204;51.262;5.488;2024-03-17T13:22:53;5.45;;;4.95;;
26536;SDS011;14204;51.262;5.488;2024-03-17T13:25:21;8.63;;;6.35;;
26536;SDS011;14204;51.262;5.488;2024-03-17T13:27:50;9.30;;;5.50;;
26536;SDS011;14204;51.262;5.488;2024-03-17T13:30:16;9.13;;;3.72;;
26536;SDS011;14204;51.262;5.488;2024-03-17T13:32:43;4.95;;;3.10;;
26536;SDS011;14204;51.262;5.488;2024-03-17T13:35:17;5.50;;;3.33;;
26536;SDS011;14204;51.262;5.488;2024-03-17T13:37:47;8.68;;;3.25;;
26536;SDS011;14204;51.262;5.488;2024-03-17T13:40:16;3.72;;;2.60;;
26536;SDS011;14204;51.262;5.488;2024-03-17T13:42:44;6.82;;;2.90;;
26536;SDS011;14204;51.262;5.488;2024-03-17T13:45:17;4.80;;;3.00;;
26536;SDS011;14204;51.262;5.488;2024-03-17T13:47:46;5.00;;;2.90;;
26536;SDS011;14204;51.262;5.488;2024-03-17T13:50:16;6.60;;;2.70;;
26536;SDS011;14204;51.262;5.488;2024-03-17T13:52:43;4.97;;;2.55;;
26536;SDS011;14204;51.262;5.488;2024-03-17T13:55:16;5.40;;;3.42;;
26536;SDS011;14204;51.262;5.488;2024-03-17T13:57:46;5.65;;;3.20;;
26536;SDS011;14204;51.262;5.488;2024-03-17T14:00:14;6.13;;;2.92;;
26536;SDS011;14204;51.262;5.488;2024-03-17T14:02:45;4.90;;;2.92;;
26536;SDS011;14204;51.262;5.488;2024-03-17T14:05:15;3.67;;;2.67;;
26536;SDS011;14204;51.262;5.488;2024-03-17T14:07:42;4.38;;;3.22;;
26536;SDS011;14204;51.262;5.488;2024-03-17T14:10:09;6.63;;;3.10;;
26536;SDS011;14204;51.262;5.488;2024-03-17T14:12:36;5.15;;;3.22;;
26536;SDS011;14204;51.262;5.488;2024-03-17T14:15:06;6.10;;;4.00;;
26536;SDS011;14204;51.262;5.488;2024-03-17T14:17:42;5.47;;;3.80;;
26536;SDS011;14204;51.262;5.488;2024-03-17T14:20:09;6.65;;;4.60;;
26536;SDS011;14204;51.262;5.488;2024-03-17T14:22:36;5.97;;;4.18;;
26536;SDS011;14204;51.262;5.488;2024-03-17T14:25:03;7.15;;;3.72;;
26536;SDS011;14204;51.262;5.488;2024-03-17T14:27:34;7.15;;;3.88;;
26536;SDS011;14204;51.262;5.488;2024-03-17T14:30:00;6.05;;;3.35;;
26536;SDS011;14204;51.262;5.488;2024-03-17T14:32:26;9.60;;;4.32;;
26536;SDS011;14204;51.262;5.488;2024-03-17T14:34:53;4.97;;;3.85;;
26536;SDS011;14204;51.262;5.488;2024-03-17T14:37:18;4.45;;;3.70;;
26536;SDS011;14204;51.262;5.488;2024-03-17T14:39:44;7.68;;;3.42;;
26536;SDS011;14204;51.262;5.488;2024-03-17T14:42:10;4.80;;;3.53;;
26536;SDS011;14204;51.262;5.488;2024-03-17T14:44:36;6.65;;;2.95;;
26536;SDS011;14204;51.262;5.488;2024-03-17T14:47:02;3.45;;;2.92;;
26536;SDS011;14204;51.262;5.488;2024-03-17T14:49:32;6.03;;;3.00;;
26536;SDS011;14204;51.262;5.488;2024-03-17T14:51:58;3.63;;;2.78;;
26536;SDS011;14204;51.262;5.488;2024-03-17T14:54:24;3.63;;;2.45;;
26536;SDS011;14204;51.262;5.488;2024-03-17T14:56:51;3.40;;;2.40;;
26536;SDS011;14204;51.262;5.488;2024-03-17T14:59:18;5.95;;;3.00;;
26536;SDS011;14204;51.262;5.488;2024-03-17T15:01:47;2.97;;;2.58;;
26536;SDS011;14204;51.262;5.488;2024-03-17T15:04:13;4.07;;;2.38;;
26536;SDS011;14204;51.262;5.488;2024-03-17T15:06:40;4.18;;;2.10;;
26536;SDS011;14204;51.262;5.488;2024-03-17T15:09:06;4.82;;;2.15;;
26536;SDS011;14204;51.262;5.488;2024-03-17T15:11:33;5.90;;;2.15;;
26536;SDS011;14204;51.262;5.488;2024-03-17T15:13:58;3.67;;;1.80;;
26536;SDS011;14204;51.262;5.488;2024-03-17T15:16:24;5.78;;;2.03;;